createdAt,value
2022-09-24T00:02:18.526Z,11.80
2022-09-24T00:04:46.752Z,11.00
2022-09-24T00:07:15.371Z,11.30
2022-09-24T00:09:43.251Z,10.30
2022-09-24T00:12:13.333Z,10.70
2022-09-24T00:14:41.705Z,11.60
2022-09-24T00:17:09.578Z,12.40
2022-09-24T00:19:37.992Z,11.40
2022-09-24T00:22:06.028Z,11.30
2022-09-24T00:24:52.670Z,10.80
2022-09-24T00:27:20.592Z,10.70
2022-09-24T00:29:48.658Z,11.30
2022-09-24T00:32:16.636Z,10.90
2022-09-24T00:34:44.706Z,11.80
2022-09-24T00:37:12.584Z,9.90
2022-09-24T00:39:40.749Z,10.00
2022-09-24T00:42:10.535Z,10.90
2022-09-24T00:44:41.565Z,10.30
2022-09-24T00:47:39.267Z,10.70
2022-09-24T00:50:26.791Z,11.00
2022-09-24T00:53:05.209Z,9.90
2022-09-24T00:55:36.377Z,12.30
2022-09-24T00:58:08.770Z,11.20
2022-09-24T01:00:39.978Z,11.50
2022-09-24T01:03:21.386Z,10.60
2022-09-24T01:05:50.868Z,9.30
2022-09-24T01:08:21.303Z,9.40
2022-09-24T01:10:54.958Z,11.30
2022-09-24T01:14:13.865Z,10.40
2022-09-24T01:16:58.007Z,9.70
2022-09-24T01:19:55.980Z,10.70
2022-09-24T01:22:49.955Z,9.50
2022-09-24T01:25:33.380Z,9.70
2022-09-24T01:28:25.625Z,10.20
2022-09-24T01:31:07.600Z,9.10
2022-09-24T01:33:37.751Z,10.40
2022-09-24T01:36:09.617Z,9.30
2022-09-24T01:38:44.883Z,11.20
2022-09-24T01:41:16.418Z,11.90
2022-09-24T01:43:46.112Z,9.80
2022-09-24T01:46:19.815Z,10.10
2022-09-24T01:48:49.250Z,11.20
2022-09-24T01:51:38.178Z,9.90
2022-09-24T01:54:23.989Z,10.20
2022-09-24T01:57:01.351Z,9.70
2022-09-24T01:59:39.157Z,10.10
2022-09-24T02:02:19.259Z,9.90
2022-09-24T02:04:59.963Z,8.60
2022-09-24T02:07:40.029Z,10.40
2022-09-24T02:10:17.914Z,9.70
2022-09-24T02:12:52.806Z,9.10
2022-09-24T02:15:38.039Z,10.80
2022-09-24T02:20:44.296Z,8.60
2022-09-24T02:23:16.234Z,9.50
2022-09-24T02:26:02.583Z,9.90
2022-09-24T02:28:33.504Z,9.20
2022-09-24T02:31:14.902Z,9.60
2022-09-24T02:34:06.224Z,10.00
2022-09-24T02:36:35.617Z,9.90
2022-09-24T02:39:03.909Z,10.60
2022-09-24T02:41:32.789Z,8.90
2022-09-24T02:44:01.238Z,10.00
2022-09-24T02:46:29.582Z,8.80
2022-09-24T02:48:57.929Z,9.20
2022-09-24T02:51:26.542Z,10.10
2022-09-24T02:53:54.460Z,9.60
2022-09-24T02:56:22.507Z,8.40
2022-09-24T02:58:50.931Z,9.90
2022-09-24T03:01:19.823Z,8.60
2022-09-24T03:03:48.406Z,9.30
2022-09-24T03:06:16.482Z,9.40
2022-09-24T03:08:45.222Z,9.00
2022-09-24T03:11:18.563Z,9.40
2022-09-24T03:13:47.043Z,8.80
2022-09-24T03:16:16.745Z,8.60
2022-09-24T03:18:47.619Z,8.70
2022-09-24T03:21:19.885Z,8.50
2022-09-24T03:23:48.314Z,7.50
2022-09-24T03:26:18.056Z,8.00
2022-09-24T03:28:46.487Z,8.50
2022-09-24T03:31:14.919Z,8.40
2022-09-24T03:33:50.278Z,8.50
2022-09-24T03:36:23.229Z,8.00
2022-09-24T03:38:56.702Z,9.30
2022-09-24T03:41:27.890Z,8.00
2022-09-24T03:43:56.785Z,9.00
2022-09-24T03:46:30.471Z,7.10
2022-09-24T03:49:00.364Z,8.50
2022-09-24T03:51:28.380Z,7.80
2022-09-24T03:53:56.749Z,8.30
2022-09-24T03:56:24.715Z,7.90
2022-09-24T03:58:52.785Z,8.00
2022-09-24T04:01:21.967Z,7.20
2022-09-24T04:03:50.982Z,7.60
2022-09-24T04:06:24.832Z,8.20
2022-09-24T04:08:54.523Z,6.50
2022-09-24T04:11:24.926Z,7.40
2022-09-24T04:13:53.620Z,9.10
2022-09-24T04:16:22.234Z,7.00
2022-09-24T04:18:51.089Z,7.40
2022-09-24T04:21:19.126Z,7.00
2022-09-24T04:23:47.841Z,8.40
2022-09-24T04:26:16.536Z,7.20
2022-09-24T04:28:44.575Z,7.20
2022-09-24T04:31:12.520Z,9.30
2022-09-24T04:33:40.943Z,7.30
2022-09-24T04:36:09.196Z,6.90
2022-09-24T04:38:37.709Z,6.60
2022-09-24T04:41:08.697Z,7.90
2022-09-24T04:43:37.093Z,7.70
2022-09-24T04:46:06.694Z,7.60
2022-09-24T04:48:36.451Z,7.60
2022-09-24T04:51:09.024Z,7.30
2022-09-24T04:53:37.767Z,7.60
2022-09-24T04:56:12.267Z,7.00
2022-09-24T04:58:40.605Z,7.10
2022-09-24T05:01:09.600Z,7.80
2022-09-24T05:03:37.555Z,7.10
2022-09-24T05:06:05.742Z,7.60
2022-09-24T05:08:33.718Z,7.80
2022-09-24T05:11:02.660Z,6.80
2022-09-24T05:13:30.849Z,8.10
2022-09-24T05:16:01.068Z,7.50
2022-09-24T05:18:29.379Z,7.70
2022-09-24T05:20:57.785Z,7.70
2022-09-24T05:23:25.839Z,7.90
2022-09-24T05:26:12.571Z,7.50
2022-09-24T05:28:42.906Z,7.20
2022-09-24T05:31:11.362Z,6.70
2022-09-24T05:33:39.626Z,7.30
2022-09-24T05:36:07.649Z,7.40
2022-09-24T05:38:38.791Z,7.40
2022-09-24T05:41:09.257Z,7.80
2022-09-24T05:43:38.255Z,7.30
2022-09-24T05:46:06.605Z,7.20
2022-09-24T05:48:34.603Z,6.50
2022-09-24T05:51:03.878Z,7.00
2022-09-24T05:53:32.339Z,7.00
2022-09-24T05:56:01.456Z,7.30
2022-09-24T05:58:29.764Z,6.30
2022-09-24T06:01:01.321Z,7.40
2022-09-24T06:03:30.076Z,6.90
2022-09-24T06:06:04.009Z,7.30
2022-09-24T06:08:33.501Z,7.50
2022-09-24T06:11:13.280Z,6.50
2022-09-24T06:13:41.231Z,7.40
2022-09-24T06:16:12.812Z,7.80
2022-09-24T06:18:44.309Z,7.20
2022-09-24T06:21:17.667Z,7.50
2022-09-24T06:23:45.908Z,6.60
2022-09-24T06:26:14.985Z,7.20
2022-09-24T06:28:43.264Z,7.10
2022-09-24T06:31:12.817Z,7.20
2022-09-24T06:33:41.118Z,7.30
2022-09-24T06:36:09.206Z,7.30
2022-09-24T06:38:40.688Z,7.20
2022-09-24T06:41:10.267Z,7.90
2022-09-24T06:43:38.265Z,8.20
2022-09-24T06:46:06.468Z,7.10
2022-09-24T06:48:34.612Z,6.70
2022-09-24T06:51:05.781Z,8.50
2022-09-24T06:53:33.914Z,6.60
2022-09-24T06:56:03.737Z,6.50
2022-09-24T06:58:31.918Z,7.30
2022-09-24T07:01:03.036Z,8.20
2022-09-24T07:03:34.546Z,7.30
2022-09-24T07:06:06.213Z,7.10
2022-09-24T07:08:35.064Z,7.40
2022-09-24T07:11:03.131Z,7.10
2022-09-24T07:13:31.639Z,7.50
2022-09-24T07:16:01.718Z,8.20
2022-09-24T07:18:29.907Z,7.10
2022-09-24T07:20:58.084Z,7.00
2022-09-24T07:23:27.836Z,7.20
2022-09-24T07:25:58.134Z,7.20
2022-09-24T07:28:26.713Z,6.80
2022-09-24T07:31:00.999Z,7.60
2022-09-24T07:33:32.389Z,7.80
2022-09-24T07:36:07.234Z,6.80
2022-09-24T07:38:36.585Z,7.80
2022-09-24T07:41:08.507Z,6.20
2022-09-24T07:43:37.047Z,6.40
2022-09-24T07:46:05.075Z,7.40
2022-09-24T07:48:33.101Z,6.60
2022-09-24T07:51:01.056Z,7.10
2022-09-24T07:53:29.127Z,6.70
2022-09-24T07:56:00.775Z,7.30
2022-09-24T07:58:28.965Z,6.90
2022-09-24T08:01:03.557Z,7.10
2022-09-24T08:06:01.892Z,6.20
2022-09-24T08:08:31.454Z,6.70
2022-09-24T08:11:08.896Z,6.50
2022-09-24T08:13:38.110Z,6.70
2022-09-24T08:16:07.068Z,6.90
2022-09-24T08:18:35.452Z,7.50
2022-09-24T08:21:12.104Z,6.60
2022-09-24T08:23:40.917Z,6.10
2022-09-24T08:26:13.921Z,6.70
2022-09-24T08:28:43.026Z,6.00
2022-09-24T08:31:13.997Z,7.30
2022-09-24T08:33:43.895Z,6.70
2022-09-24T08:36:12.325Z,7.80
2022-09-24T08:38:40.603Z,6.90
2022-09-24T08:41:11.746Z,6.30
2022-09-24T08:44:11.600Z,6.50
2022-09-24T08:47:11.028Z,6.70
2022-09-24T08:49:49.425Z,6.40
2022-09-24T08:52:37.509Z,6.00
2022-09-24T08:55:22.581Z,6.70
2022-09-24T08:58:10.932Z,5.80
2022-09-24T09:01:01.851Z,6.80
2022-09-24T09:04:12.519Z,5.60
2022-09-24T09:07:09.913Z,6.50
2022-09-24T09:10:01.098Z,5.70
2022-09-24T09:12:48.931Z,5.20
2022-09-24T09:15:31.547Z,5.90
2022-09-24T09:18:22.079Z,5.30
2022-09-24T09:20:50.932Z,5.50
2022-09-24T09:23:22.922Z,5.80
2022-09-24T09:26:01.004Z,5.60
2022-09-24T09:28:30.300Z,6.20
2022-09-24T09:31:32.053Z,5.40
2022-09-24T09:34:47.994Z,5.90
2022-09-24T09:37:53.609Z,5.30
2022-09-24T09:40:49.662Z,5.80
2022-09-24T09:43:18.679Z,5.80
2022-09-24T09:46:04.468Z,5.90
2022-09-24T09:49:05.666Z,5.90
2022-09-24T09:51:43.156Z,5.60
2022-09-24T09:54:11.768Z,5.90
2022-09-24T09:56:50.087Z,4.80
2022-09-24T09:59:27.211Z,5.80
2022-09-24T10:01:57.872Z,5.00
2022-09-24T10:04:33.014Z,5.60
2022-09-24T10:07:17.306Z,5.80
2022-09-24T10:09:47.006Z,6.10
2022-09-24T10:12:24.393Z,5.80
2022-09-24T10:15:04.224Z,5.00
2022-09-24T10:17:39.755Z,5.20
2022-09-24T10:20:21.961Z,6.10
2022-09-24T10:22:58.621Z,6.00
2022-09-24T10:25:31.310Z,5.10
2022-09-24T10:28:39.218Z,5.60
2022-09-24T10:31:22.659Z,5.60
2022-09-24T10:33:56.457Z,5.60
2022-09-24T10:36:32.795Z,5.00
2022-09-24T10:39:09.189Z,5.00
2022-09-24T10:41:37.567Z,4.80
2022-09-24T10:44:12.089Z,5.90
2022-09-24T10:47:01.975Z,4.80
2022-09-24T10:49:38.804Z,5.80
2022-09-24T10:52:30.887Z,5.10
2022-09-24T10:55:18.107Z,4.30
2022-09-24T10:58:03.169Z,5.00
2022-09-24T11:00:59.121Z,5.70
2022-09-24T11:03:30.124Z,4.50
2022-09-24T11:06:33.551Z,5.60
2022-09-24T11:09:42.278Z,5.30
2022-09-24T11:12:47.008Z,4.00
2022-09-24T11:16:20.645Z,5.30
2022-09-24T11:19:04.419Z,4.90
2022-09-24T11:22:08.717Z,5.70
2022-09-24T11:24:48.853Z,4.80
2022-09-24T11:28:22.330Z,4.50
2022-09-24T11:32:05.791Z,4.00
2022-09-24T11:34:58.452Z,4.70
2022-09-24T11:37:36.320Z,5.00
2022-09-24T11:40:53.896Z,4.40
2022-09-24T11:43:35.487Z,3.60
2022-09-24T11:46:31.385Z,4.30
2022-09-24T11:49:35.088Z,4.40
2022-09-24T11:52:20.654Z,4.80
2022-09-24T11:55:16.359Z,4.60
2022-09-24T11:58:36.549Z,4.10
2022-09-24T12:01:18.055Z,3.70
2022-09-24T12:04:14.595Z,4.70
2022-09-24T12:07:14.024Z,4.20
2022-09-24T12:09:57.969Z,3.80
2022-09-24T12:12:45.388Z,4.40
2022-09-24T12:15:21.845Z,4.10
2022-09-24T12:18:25.750Z,4.90
2022-09-24T12:20:57.714Z,4.10
2022-09-24T12:23:32.772Z,4.30
2022-09-24T12:26:07.791Z,4.70
2022-09-24T12:32:54.268Z,4.30
2022-09-24T12:35:56.179Z,4.10
2022-09-24T12:38:31.524Z,3.40
2022-09-24T12:41:32.535Z,4.60
2022-09-24T12:44:07.787Z,4.60
2022-09-24T12:46:51.297Z,4.70
2022-09-24T12:49:25.664Z,4.90
2022-09-24T12:52:00.835Z,4.80
2022-09-24T12:54:38.170Z,4.00
2022-09-24T12:57:26.570Z,3.70
2022-09-24T12:59:58.890Z,4.10
2022-09-24T13:02:45.226Z,4.80
2022-09-24T13:05:22.344Z,3.70
2022-09-24T13:08:25.523Z,4.10
2022-09-24T13:11:06.001Z,5.00
2022-09-24T13:13:43.567Z,3.90
2022-09-24T13:16:21.102Z,3.90
2022-09-24T13:18:56.811Z,4.60
2022-09-24T13:21:28.221Z,9.50
2022-09-24T13:23:57.501Z,16.20
2022-09-24T13:26:25.455Z,20.70
2022-09-24T13:28:58.608Z,27.70
2022-09-24T13:31:53.094Z,29.70
2022-09-24T13:34:29.716Z,27.50
2022-09-24T13:37:34.731Z,25.40
2022-09-24T13:40:16.989Z,27.80
2022-09-24T13:43:18.149Z,34.00
2022-09-24T13:45:47.878Z,28.10
2022-09-24T13:48:36.534Z,29.90
2022-09-24T13:51:12.371Z,25.00
2022-09-24T13:53:56.891Z,30.90
2022-09-24T13:56:25.179Z,27.50
2022-09-24T13:59:06.617Z,29.60
2022-09-24T14:01:44.405Z,29.20
2022-09-24T14:04:22.647Z,33.70
2022-09-24T14:06:56.207Z,26.80
2022-09-24T14:09:36.677Z,28.30
2022-09-24T14:12:22.159Z,28.30
2022-09-24T14:14:58.388Z,26.30
2022-09-24T14:17:26.890Z,28.00
2022-09-24T14:19:57.316Z,28.30
2022-09-24T14:22:41.549Z,27.00
2022-09-24T14:25:20.592Z,26.60
2022-09-24T14:27:52.047Z,26.50
2022-09-24T14:30:26.409Z,25.10
2022-09-24T14:33:06.685Z,24.50
2022-09-24T14:35:38.386Z,25.60
2022-09-24T14:38:29.543Z,24.80
2022-09-24T14:41:05.793Z,23.20
2022-09-24T14:44:04.260Z,23.50
2022-09-24T14:46:48.822Z,25.00
2022-09-24T14:49:43.370Z,24.60
2022-09-24T14:52:40.034Z,23.60
2022-09-24T14:55:20.062Z,25.30
2022-09-24T14:57:55.299Z,23.50
2022-09-24T15:00:37.625Z,24.10
2022-09-24T15:03:19.632Z,23.10
2022-09-24T15:05:47.868Z,22.60
2022-09-24T15:08:21.834Z,23.60
2022-09-24T15:11:06.745Z,23.40
2022-09-24T15:13:38.018Z,25.40
2022-09-24T15:16:19.436Z,20.90
2022-09-24T15:19:11.397Z,22.10
2022-09-24T15:21:39.736Z,24.70
2022-09-24T15:24:07.936Z,24.60
2022-09-24T15:26:42.249Z,20.80
2022-09-24T15:29:21.034Z,18.00
2022-09-24T15:31:50.338Z,22.60
2022-09-24T15:34:20.433Z,22.30
2022-09-24T15:36:54.219Z,20.80
2022-09-24T15:39:26.261Z,23.10
2022-09-24T15:41:54.928Z,22.20
2022-09-24T15:44:31.246Z,22.10
2022-09-24T15:47:01.901Z,20.20
2022-09-24T15:49:29.846Z,20.30
2022-09-24T15:52:06.774Z,20.30
2022-09-24T15:54:35.048Z,21.40
2022-09-24T15:57:04.513Z,18.70
2022-09-24T15:59:32.744Z,18.00
2022-09-24T16:02:04.831Z,18.60
2022-09-24T16:04:32.879Z,20.10
2022-09-24T16:07:00.990Z,19.90
2022-09-24T16:09:28.916Z,16.90
2022-09-24T16:11:57.785Z,18.80
2022-09-24T16:14:26.192Z,19.00
2022-09-24T16:16:56.085Z,20.70
2022-09-24T16:19:24.410Z,18.30
2022-09-24T16:21:52.743Z,19.30
2022-09-24T16:24:20.854Z,18.10
2022-09-24T16:26:48.776Z,19.70
2022-09-24T16:29:18.192Z,16.60
2022-09-24T16:31:47.162Z,14.10
2022-09-24T16:34:15.550Z,15.40
2022-09-24T16:36:43.935Z,16.10
2022-09-24T16:39:12.599Z,18.30
2022-09-24T16:41:40.892Z,16.60
2022-09-24T16:44:15.324Z,14.20
2022-09-24T16:46:44.546Z,15.50
2022-09-24T16:49:12.897Z,15.60
2022-09-24T16:51:41.292Z,17.10
2022-09-24T16:54:10.063Z,17.40
2022-09-24T16:56:38.988Z,15.20
2022-09-24T16:59:07.050Z,16.80
2022-09-24T17:01:34.999Z,15.00
2022-09-24T17:04:06.746Z,15.30
2022-09-24T17:06:36.821Z,17.60
2022-09-24T17:09:23.970Z,16.90
2022-09-24T17:11:53.110Z,16.70
2022-09-24T17:14:21.770Z,14.40
2022-09-24T17:16:50.549Z,15.50
2022-09-24T17:19:19.030Z,16.40
2022-09-24T17:21:50.249Z,14.40
2022-09-24T17:24:22.161Z,17.80
2022-09-24T17:26:50.528Z,16.50
2022-09-24T17:29:20.990Z,16.40
2022-09-24T17:31:49.749Z,17.20
2022-09-24T17:34:18.327Z,14.40
2022-09-24T17:36:47.217Z,15.80
2022-09-24T17:39:15.721Z,14.70
2022-09-24T17:41:43.962Z,15.40
2022-09-24T17:44:14.030Z,13.50
2022-09-24T17:46:42.432Z,13.60
2022-09-24T17:49:13.021Z,14.10
2022-09-24T17:51:41.482Z,14.40
2022-09-24T17:54:14.373Z,14.80
2022-09-24T17:56:42.819Z,13.70
2022-09-24T17:59:14.347Z,14.50
2022-09-24T18:01:44.972Z,13.70
2022-09-24T18:04:19.452Z,15.20
2022-09-24T18:06:50.158Z,14.60
2022-09-24T18:09:20.028Z,13.00
2022-09-24T18:11:52.604Z,14.20
2022-09-24T18:14:23.426Z,14.60
2022-09-24T18:16:51.638Z,13.80
2022-09-24T18:19:20.091Z,13.50
2022-09-24T18:21:51.327Z,13.70
2022-09-24T18:24:19.290Z,13.60
2022-09-24T18:26:51.381Z,14.40
2022-09-24T18:29:21.484Z,12.70
2022-09-24T18:31:51.914Z,12.70
2022-09-24T18:34:20.137Z,13.20
2022-09-24T18:36:48.351Z,12.40
2022-09-24T18:39:24.792Z,10.90
2022-09-24T18:41:53.679Z,12.30
2022-09-24T18:44:22.409Z,12.10
2022-09-24T18:46:50.572Z,12.10
2022-09-24T18:49:19.675Z,12.00
2022-09-24T18:51:49.191Z,11.20
2022-09-24T18:54:19.237Z,12.30
2022-09-24T18:56:47.428Z,11.60
2022-09-24T18:59:19.645Z,11.80
2022-09-24T19:01:50.854Z,11.60
2022-09-24T19:04:19.153Z,8.90
2022-09-24T19:06:49.902Z,11.00
2022-09-24T19:09:20.348Z,9.60
2022-09-24T19:11:49.107Z,10.20
2022-09-24T19:14:20.455Z,11.30
2022-09-24T19:16:49.045Z,9.60
2022-09-24T19:19:16.988Z,11.80
2022-09-24T19:21:45.488Z,11.50
2022-09-24T19:24:13.457Z,11.40
2022-09-24T19:26:42.059Z,14.10
2022-09-24T19:29:11.567Z,14.90
2022-09-24T19:31:45.176Z,12.70
2022-09-24T19:34:14.668Z,14.50
2022-09-24T19:36:45.311Z,14.60
2022-09-24T19:39:17.020Z,16.30
2022-09-24T19:41:47.568Z,16.00
2022-09-24T19:44:16.977Z,16.10
2022-09-24T19:46:45.901Z,14.70
2022-09-24T19:49:14.671Z,16.30
2022-09-24T19:51:43.652Z,15.90
2022-09-24T19:54:12.102Z,15.50
2022-09-24T19:56:40.203Z,14.60
2022-09-24T19:59:08.802Z,15.90
2022-09-24T20:01:37.884Z,15.70
2022-09-24T20:04:08.189Z,16.00
2022-09-24T20:06:39.047Z,15.70
2022-09-24T20:09:07.551Z,16.50
2022-09-24T20:11:36.219Z,21.10
2022-09-24T20:14:11.338Z,17.10
2022-09-24T20:16:42.909Z,17.30
2022-09-24T20:19:15.752Z,16.60
2022-09-24T20:21:43.757Z,18.80
2022-09-24T20:24:12.971Z,17.40
2022-09-24T20:26:59.772Z,18.90
2022-09-24T20:29:27.839Z,17.70
2022-09-24T20:31:57.080Z,19.70
2022-09-24T20:34:34.067Z,20.20
2022-09-24T20:37:05.655Z,18.40
2022-09-24T20:39:33.949Z,19.00
2022-09-24T20:42:02.326Z,17.70
2022-09-24T20:44:33.149Z,19.30
2022-09-24T20:47:01.194Z,20.50
2022-09-24T20:49:29.984Z,17.70
2022-09-24T20:51:58.398Z,19.30
2022-09-24T20:54:28.687Z,16.40
2022-09-24T20:56:58.011Z,15.30
2022-09-24T20:59:27.205Z,17.00
2022-09-24T21:01:55.871Z,15.70
2022-09-24T21:04:24.653Z,16.00
2022-09-24T21:06:55.343Z,17.40
2022-09-24T21:09:23.297Z,17.30
2022-09-24T21:11:52.403Z,15.10
2022-09-24T21:14:21.988Z,17.10
2022-09-24T21:16:50.080Z,15.20
2022-09-24T21:19:18.258Z,17.40
2022-09-24T21:21:47.249Z,16.80
2022-09-24T21:24:16.145Z,15.50
2022-09-24T21:26:45.365Z,14.20
2022-09-24T21:29:21.029Z,19.30
2022-09-24T21:31:50.713Z,16.50
2022-09-24T21:34:23.095Z,17.90
2022-09-24T21:36:52.286Z,15.80
2022-09-24T21:39:23.305Z,16.30
2022-09-24T21:41:53.305Z,16.60
2022-09-24T21:44:22.025Z,14.00
2022-09-24T21:46:52.622Z,18.10
2022-09-24T21:49:23.023Z,15.90
2022-09-24T21:51:53.812Z,14.40
2022-09-24T21:54:22.084Z,16.90
2022-09-24T21:56:50.155Z,15.00
2022-09-24T21:59:36.658Z,14.10
2022-09-24T22:02:04.867Z,14.90
2022-09-24T22:04:33.628Z,12.10
2022-09-24T22:07:02.732Z,15.10
2022-09-24T22:09:32.571Z,14.90
2022-09-24T22:12:03.781Z,13.20
2022-09-24T22:14:34.840Z,14.00
2022-09-24T22:17:04.196Z,16.80
2022-09-24T22:19:32.702Z,13.00
2022-09-24T22:22:00.759Z,13.20
2022-09-24T22:24:28.950Z,13.60
2022-09-24T22:26:57.351Z,16.70
2022-09-24T22:29:25.346Z,14.00
2022-09-24T22:31:53.360Z,11.70
2022-09-24T22:34:40.499Z,13.40
2022-09-24T22:37:08.968Z,14.10
2022-09-24T22:39:36.838Z,12.40
2022-09-24T22:42:05.740Z,15.40
2022-09-24T22:44:33.640Z,14.20
2022-09-24T22:47:01.561Z,12.10
2022-09-24T22:49:29.914Z,11.40
2022-09-24T22:51:58.612Z,15.90
2022-09-24T22:54:26.698Z,13.70
2022-09-24T22:56:54.663Z,13.30
2022-09-24T22:59:22.739Z,13.80
2022-09-24T23:01:51.147Z,13.00
2022-09-24T23:04:19.190Z,10.30
2022-09-24T23:06:47.451Z,10.70
2022-09-24T23:09:15.744Z,11.50
2022-09-24T23:11:43.903Z,10.70
2022-09-24T23:14:19.401Z,11.20
2022-09-24T23:16:48.621Z,12.10
2022-09-24T23:19:19.899Z,10.70
2022-09-24T23:21:48.836Z,10.70
2022-09-24T23:24:20.313Z,11.80
2022-09-24T23:26:48.479Z,11.00
2022-09-24T23:29:16.598Z,11.60
2022-09-24T23:31:44.778Z,12.70
2022-09-24T23:34:14.174Z,11.00
2022-09-24T23:36:45.429Z,11.90
2022-09-24T23:39:14.111Z,10.60
2022-09-24T23:41:42.118Z,11.00
2022-09-24T23:44:10.996Z,12.10
2022-09-24T23:46:39.022Z,10.40
2022-09-24T23:49:07.022Z,10.70
2022-09-24T23:51:34.985Z,12.30
2022-09-24T23:54:03.172Z,10.30
2022-09-24T23:56:31.453Z,11.60
2022-09-24T23:58:59.914Z,11.30
